createdAt,value
2018-09-06T00:00:34.028Z,16.07
2018-09-06T00:01:34.079Z,16.09
2018-09-06T00:02:34.140Z,16.07
2018-09-06T00:03:34.209Z,16.06
2018-09-06T00:04:34.229Z,16.11
2018-09-06T00:05:34.301Z,16.04
2018-09-06T00:06:34.333Z,15.99
2018-09-06T00:07:34.391Z,16.09
2018-09-06T00:08:34.448Z,16.07
2018-09-06T00:09:34.478Z,16.01
2018-09-06T00:10:34.528Z,16.06
2018-09-06T00:11:34.606Z,16.04
2018-09-06T00:12:34.634Z,16.12
2018-09-06T00:13:34.682Z,16.15
2018-09-06T00:14:34.749Z,16.11
2018-09-06T00:15:34.779Z,16.11
2018-09-06T00:16:34.847Z,16.12
2018-09-06T00:17:35.576Z,16.04
2018-09-06T00:18:34.945Z,16.18
2018-09-06T00:19:34.993Z,16.06
2018-09-06T00:20:35.035Z,16.12
2018-09-06T00:21:35.083Z,16.20
2018-09-06T00:22:35.130Z,16.16
2018-09-06T00:23:35.182Z,16.18
2018-09-06T00:24:35.248Z,16.16
2018-09-06T00:25:35.276Z,16.18
2018-09-06T00:26:35.323Z,16.15
2018-09-06T00:27:35.394Z,16.15
2018-09-06T00:28:35.431Z,16.22
2018-09-06T00:29:35.496Z,16.22
2018-09-06T00:30:35.523Z,16.25
2018-09-06T00:31:35.585Z,16.15
2018-09-06T00:32:35.643Z,16.22
2018-09-06T00:33:35.675Z,16.23
2018-09-06T00:34:35.722Z,16.15
2018-09-06T00:35:35.783Z,16.23
2018-09-06T00:36:35.832Z,16.20
2018-09-06T00:37:35.896Z,16.18
2018-09-06T00:38:35.924Z,16.20
2018-09-06T00:39:36.578Z,16.12
2018-09-06T00:40:36.025Z,16.20
2018-09-06T00:41:36.097Z,16.15
2018-09-06T00:42:36.124Z,16.15
2018-09-06T00:43:36.205Z,16.20
2018-09-06T00:44:36.225Z,16.12
2018-09-06T00:45:37.078Z,16.09
2018-09-06T00:46:36.330Z,16.14
2018-09-06T00:47:36.385Z,16.03
2018-09-06T00:48:36.420Z,16.09
2018-09-06T00:49:36.476Z,16.01
2018-09-06T00:50:37.079Z,16.07
2018-09-06T00:51:36.573Z,16.03
2018-09-06T00:52:36.640Z,15.97
2018-09-06T00:53:36.671Z,16.04
2018-09-06T00:54:36.720Z,16.04
2018-09-06T00:55:36.772Z,16.00
2018-09-06T00:56:36.841Z,16.01
2018-09-06T00:57:37.598Z,15.99
2018-09-06T00:58:37.579Z,15.99
2018-09-06T00:59:36.968Z,16.03
2018-09-06T01:00:37.020Z,15.97
2018-09-06T01:01:37.109Z,15.97
2018-09-06T01:02:37.120Z,15.94
2018-09-06T01:03:37.172Z,15.96
2018-09-06T01:04:37.227Z,15.93
2018-09-06T01:05:37.270Z,15.99
2018-09-06T01:06:37.343Z,16.03
2018-09-06T01:07:37.366Z,16.00
2018-09-06T01:08:37.442Z,15.99
2018-09-06T01:09:37.472Z,16.01
2018-09-06T01:10:37.518Z,16.03
2018-09-06T01:11:37.569Z,15.97
2018-09-06T01:12:37.621Z,15.96
2018-09-06T01:13:38.582Z,15.94
2018-09-06T01:14:37.718Z,15.96
2018-09-06T01:15:38.583Z,15.96
2018-09-06T01:16:37.818Z,15.96
2018-09-06T01:17:37.871Z,15.92
2018-09-06T01:18:37.941Z,15.92
2018-09-06T01:19:37.990Z,15.92
2018-09-06T01:20:38.019Z,15.93
2018-09-06T01:21:38.072Z,15.81
2018-09-06T01:22:38.132Z,15.81
2018-09-06T01:23:38.886Z,15.85
2018-09-06T01:24:38.240Z,15.79
2018-09-06T01:25:38.270Z,15.75
2018-09-06T01:26:38.318Z,15.72
2018-09-06T01:27:38.369Z,15.70
2018-09-06T01:28:38.419Z,15.72
2018-09-06T01:29:38.516Z,15.75
2018-09-06T01:30:38.514Z,15.64
2018-09-06T01:31:38.576Z,15.54
2018-09-06T01:32:38.632Z,15.59
2018-09-06T01:33:38.672Z,15.54
2018-09-06T01:34:38.752Z,15.68
2018-09-06T01:35:38.766Z,15.66
2018-09-06T01:36:38.820Z,15.67
2018-09-06T01:37:38.868Z,15.59
2018-09-06T01:38:38.962Z,15.67
2018-09-06T01:39:39.059Z,15.66
2018-09-06T01:40:39.014Z,15.56
2018-09-06T01:41:39.072Z,15.63
2018-09-06T01:42:39.114Z,15.61
2018-09-06T01:43:39.170Z,15.68
2018-09-06T01:44:39.237Z,15.64
2018-09-06T01:45:40.108Z,15.59
2018-09-06T01:46:39.400Z,15.54
2018-09-06T01:47:39.367Z,15.59
2018-09-06T01:48:41.108Z,15.57
2018-09-06T01:49:39.462Z,15.57
2018-09-06T01:50:39.548Z,15.59
2018-09-06T01:51:39.567Z,15.52
2018-09-06T01:52:39.610Z,15.48
2018-09-06T01:53:39.663Z,15.59
2018-09-06T01:54:39.711Z,15.51
2018-09-06T01:55:39.782Z,15.52
2018-09-06T01:56:39.812Z,15.52
2018-09-06T01:57:39.879Z,15.51
2018-09-06T01:58:39.908Z,15.49
2018-09-06T01:59:39.968Z,15.52
2018-09-06T02:00:40.031Z,15.43
2018-09-06T02:01:40.592Z,15.42
2018-09-06T02:02:40.130Z,15.46
2018-09-06T02:03:40.161Z,15.52
2018-09-06T02:04:40.211Z,15.52
2018-09-06T02:05:41.092Z,15.41
2018-09-06T02:06:41.096Z,15.45
2018-09-06T02:07:40.388Z,15.43
2018-09-06T02:08:40.413Z,15.43
2018-09-06T02:09:40.455Z,15.46
2018-09-06T02:10:40.509Z,15.48
2018-09-06T02:11:40.555Z,15.52
2018-09-06T02:12:40.626Z,15.56
2018-09-06T02:13:40.657Z,15.59
2018-09-06T02:14:40.726Z,15.57
2018-09-06T02:15:40.764Z,15.61
2018-09-06T02:16:40.803Z,15.54
2018-09-06T02:17:40.853Z,15.57
2018-09-06T02:18:40.925Z,15.60
2018-09-06T02:19:40.949Z,15.54
2018-09-06T02:20:41.002Z,15.52
2018-09-06T02:21:41.068Z,15.52
2018-09-06T02:22:41.145Z,15.57
2018-09-06T02:23:41.147Z,15.46
2018-09-06T02:24:41.230Z,15.52
2018-09-06T02:25:41.249Z,15.45
2018-09-06T02:26:41.303Z,15.52
2018-09-06T02:27:41.347Z,15.49
2018-09-06T02:28:41.397Z,15.45
2018-09-06T02:29:41.470Z,15.45
2018-09-06T02:30:41.502Z,15.45
2018-09-06T02:31:41.549Z,15.39
2018-09-06T02:32:41.601Z,15.42
2018-09-06T02:33:41.648Z,15.35
2018-09-06T02:34:41.715Z,15.39
2018-09-06T02:35:41.747Z,15.41
2018-09-06T02:36:41.804Z,15.48
2018-09-06T02:37:42.629Z,15.33
2018-09-06T02:38:41.896Z,15.38
2018-09-06T02:39:41.967Z,15.33
2018-09-06T02:40:41.995Z,15.33
2018-09-06T02:41:42.046Z,15.43
2018-09-06T02:42:42.099Z,15.35
2018-09-06T02:43:42.142Z,15.33
2018-09-06T02:44:42.214Z,15.31
2018-09-06T02:45:42.244Z,15.36
2018-09-06T02:46:42.314Z,15.27
2018-09-06T02:47:42.341Z,15.33
2018-09-06T02:48:42.903Z,15.31
2018-09-06T02:49:42.453Z,15.33
2018-09-06T02:50:42.516Z,15.33
2018-09-06T02:51:42.564Z,15.35
2018-09-06T02:52:42.594Z,15.39
2018-09-06T02:53:42.685Z,15.42
2018-09-06T02:54:42.693Z,15.45
2018-09-06T02:55:42.737Z,15.52
2018-09-06T02:56:42.842Z,15.45
2018-09-06T02:57:42.849Z,15.49
2018-09-06T02:58:42.885Z,15.52
2018-09-06T02:59:42.935Z,15.61
2018-09-06T03:00:42.987Z,15.59
2018-09-06T03:01:43.061Z,15.61
2018-09-06T03:02:43.083Z,15.63
2018-09-06T03:03:43.636Z,15.57
2018-09-06T03:04:43.191Z,15.59
2018-09-06T03:05:43.234Z,15.61
2018-09-06T03:06:43.311Z,15.56
2018-09-06T03:07:43.333Z,15.51
2018-09-06T03:08:43.393Z,15.59
2018-09-06T03:09:43.434Z,15.56
2018-09-06T03:10:43.485Z,15.57
2018-09-06T03:11:43.572Z,15.56
2018-09-06T03:12:43.607Z,15.61
2018-09-06T03:13:43.636Z,15.66
2018-09-06T03:14:43.689Z,15.67
2018-09-06T03:15:43.744Z,15.60
2018-09-06T03:16:43.802Z,15.54
2018-09-06T03:17:43.842Z,15.56
2018-09-06T03:18:43.885Z,15.64
2018-09-06T03:19:44.441Z,15.56
2018-09-06T03:20:43.984Z,15.60
2018-09-06T03:21:44.032Z,15.60
2018-09-06T03:22:44.607Z,15.60
2018-09-06T03:23:44.129Z,15.63
2018-09-06T03:24:44.181Z,15.67
2018-09-06T03:25:44.256Z,15.61
2018-09-06T03:26:44.277Z,15.68
2018-09-06T03:27:44.356Z,15.61
2018-09-06T03:28:44.383Z,15.56
2018-09-06T03:29:44.435Z,15.63
2018-09-06T03:30:44.477Z,15.61
2018-09-06T03:31:44.524Z,15.57
2018-09-06T03:32:44.620Z,15.64
2018-09-06T03:33:44.633Z,15.56
2018-09-06T03:34:44.672Z,15.54
2018-09-06T03:35:44.729Z,15.57
2018-09-06T03:36:44.774Z,15.52
2018-09-06T03:37:45.613Z,15.54
2018-09-06T03:38:44.881Z,15.56
2018-09-06T03:39:45.611Z,15.46
2018-09-06T03:40:44.971Z,15.57
2018-09-06T03:41:45.026Z,15.56
2018-09-06T03:42:45.071Z,15.59
2018-09-06T03:43:45.124Z,15.59
2018-09-06T03:44:45.209Z,15.57
2018-09-06T03:45:45.221Z,15.52
2018-09-06T03:46:45.292Z,15.46
2018-09-06T03:47:45.318Z,15.49
2018-09-06T03:48:45.367Z,15.49
2018-09-06T03:49:45.428Z,15.56
2018-09-06T03:50:45.472Z,15.57
2018-09-06T03:51:45.541Z,15.59
2018-09-06T03:52:45.580Z,15.54
2018-09-06T03:53:45.621Z,15.48
2018-09-06T03:54:45.671Z,15.56
2018-09-06T03:55:45.723Z,15.45
2018-09-06T03:56:45.784Z,15.43
2018-09-06T03:57:45.825Z,15.46
2018-09-06T03:58:45.863Z,15.42
2018-09-06T03:59:45.916Z,15.35
2018-09-06T04:00:45.995Z,15.33
2018-09-06T04:01:46.016Z,15.39
2018-09-06T04:02:46.090Z,15.30
2018-09-06T04:03:46.115Z,15.36
2018-09-06T04:04:46.163Z,15.30
2018-09-06T04:05:46.234Z,15.27
2018-09-06T04:06:46.266Z,15.20
2018-09-06T04:07:46.319Z,15.17
2018-09-06T04:08:46.361Z,15.20
2018-09-06T04:09:46.410Z,15.15
2018-09-06T04:10:46.508Z,15.24
2018-09-06T04:11:46.512Z,15.19
2018-09-06T04:12:46.569Z,15.21
2018-09-06T04:13:46.629Z,15.23
2018-09-06T04:14:46.664Z,15.21
2018-09-06T04:15:46.728Z,15.23
2018-09-06T04:16:47.639Z,15.11
2018-09-06T04:17:46.817Z,15.15
2018-09-06T04:18:47.618Z,15.08
2018-09-06T04:19:46.915Z,15.09
2018-09-06T04:20:46.978Z,15.09
2018-09-06T04:21:47.033Z,15.08
2018-09-06T04:22:47.055Z,15.05
2018-09-06T04:23:47.119Z,14.94
2018-09-06T04:24:47.171Z,15.01
2018-09-06T04:25:47.203Z,15.05
2018-09-06T04:26:47.251Z,15.01
2018-09-06T04:27:48.120Z,15.01
2018-09-06T04:28:48.121Z,15.02
2018-09-06T04:29:47.400Z,14.95
2018-09-06T04:30:47.458Z,14.98
2018-09-06T04:31:47.529Z,14.94
2018-09-06T04:32:47.560Z,14.99
2018-09-06T04:33:47.601Z,15.02
2018-09-06T04:34:47.684Z,15.01
2018-09-06T04:35:47.706Z,14.87
2018-09-06T04:36:47.773Z,15.02
2018-09-06T04:37:47.822Z,14.90
2018-09-06T04:38:47.851Z,14.91
2018-09-06T04:39:47.894Z,14.91
2018-09-06T04:40:47.949Z,14.87
2018-09-06T04:41:48.065Z,14.90
2018-09-06T04:42:48.065Z,14.74
2018-09-06T04:43:48.188Z,14.81
2018-09-06T04:44:48.142Z,14.72
2018-09-06T04:45:48.196Z,14.75
2018-09-06T04:46:48.247Z,14.74
2018-09-06T04:47:48.312Z,14.69
2018-09-06T04:48:48.343Z,14.71
2018-09-06T04:49:48.402Z,14.72
2018-09-06T04:50:48.442Z,14.78
2018-09-06T04:51:48.503Z,14.69
2018-09-06T04:52:48.565Z,14.68
2018-09-06T04:53:48.756Z,14.69
2018-09-06T04:54:48.639Z,14.60
2018-09-06T04:55:48.695Z,14.62
2018-09-06T04:56:48.735Z,14.61
2018-09-06T04:57:48.794Z,14.53
2018-09-06T04:58:48.986Z,14.54
2018-09-06T04:59:48.893Z,14.56
2018-09-06T05:00:48.939Z,14.53
2018-09-06T05:01:48.985Z,14.54
2018-09-06T05:02:49.037Z,14.53
2018-09-06T05:03:49.100Z,14.61
2018-09-06T05:04:49.134Z,14.56
2018-09-06T05:05:49.177Z,14.60
2018-09-06T05:06:49.232Z,14.67
2018-09-06T05:07:49.300Z,14.69
2018-09-06T05:08:49.329Z,14.67
2018-09-06T05:09:50.130Z,14.61
2018-09-06T05:10:53.135Z,14.57
2018-09-06T05:11:49.475Z,14.49
2018-09-06T05:12:49.557Z,14.53
2018-09-06T05:13:50.128Z,14.53
2018-09-06T05:14:49.626Z,14.50
2018-09-06T05:15:49.678Z,14.52
2018-09-06T05:16:49.728Z,14.56
2018-09-06T05:17:49.793Z,14.52
2018-09-06T05:18:49.818Z,14.54
2018-09-06T05:19:50.641Z,14.54
2018-09-06T05:20:49.960Z,14.61
2018-09-06T05:21:50.025Z,14.62
2018-09-06T05:22:50.026Z,14.60
2018-09-06T05:23:50.085Z,14.62
2018-09-06T05:24:50.116Z,14.62
2018-09-06T05:25:50.203Z,14.68
2018-09-06T05:26:50.221Z,14.65
2018-09-06T05:27:50.270Z,14.65
2018-09-06T05:28:50.320Z,14.68
2018-09-06T05:29:50.363Z,14.69
2018-09-06T05:30:50.487Z,14.65
2018-09-06T05:31:50.467Z,14.69
2018-09-06T05:32:50.511Z,14.68
2018-09-06T05:33:51.133Z,14.81
2018-09-06T05:34:51.435Z,14.74
2018-09-06T05:35:50.692Z,14.69
2018-09-06T05:36:50.714Z,14.75
2018-09-06T05:37:50.769Z,14.74
2018-09-06T05:38:50.807Z,14.87
2018-09-06T05:39:50.857Z,14.90
2018-09-06T05:40:50.929Z,14.87
2018-09-06T05:41:50.978Z,14.91
2018-09-06T05:42:51.670Z,14.94
2018-09-06T05:43:51.057Z,14.93
2018-09-06T05:44:51.107Z,14.87
2018-09-06T05:45:51.637Z,14.95
2018-09-06T05:46:51.642Z,15.01
2018-09-06T05:47:52.135Z,15.01
2018-09-06T05:48:51.298Z,14.99
2018-09-06T05:49:51.357Z,14.94
2018-09-06T05:50:51.400Z,14.99
2018-09-06T05:51:52.439Z,15.08
2018-09-06T05:52:51.528Z,15.09
2018-09-06T05:53:51.549Z,15.08
2018-09-06T05:54:51.596Z,15.13
2018-09-06T05:55:51.646Z,15.12
2018-09-06T05:56:51.696Z,15.24
2018-09-06T05:57:51.780Z,15.23
2018-09-06T05:58:51.841Z,15.26
2018-09-06T05:59:51.886Z,15.38
2018-09-06T06:00:51.898Z,15.30
2018-09-06T06:01:51.947Z,15.31
2018-09-06T06:02:51.995Z,15.48
2018-09-06T06:03:52.074Z,15.52
2018-09-06T06:04:52.093Z,15.48
2018-09-06T06:05:52.142Z,15.52
2018-09-06T06:06:52.196Z,15.46
2018-09-06T06:07:52.245Z,15.61
2018-09-06T06:08:52.324Z,15.54
2018-09-06T06:09:52.342Z,15.74
2018-09-06T06:10:52.392Z,15.81
2018-09-06T06:11:52.469Z,15.79
2018-09-06T06:12:52.503Z,15.88
2018-09-06T06:13:52.560Z,15.93
2018-09-06T06:14:52.590Z,16.04
2018-09-06T06:15:52.712Z,16.09
2018-09-06T06:16:52.689Z,16.12
2018-09-06T06:17:52.736Z,16.22
2018-09-06T06:18:52.813Z,16.33
2018-09-06T06:19:52.924Z,16.35
2018-09-06T06:20:52.894Z,16.50
2018-09-06T06:21:52.938Z,16.53
2018-09-06T06:22:52.986Z,16.60
2018-09-06T06:23:53.035Z,16.67
2018-09-06T06:24:53.106Z,16.73
2018-09-06T06:25:53.200Z,16.88
2018-09-06T06:26:53.185Z,16.83
2018-09-06T06:27:54.143Z,16.92
2018-09-06T06:28:53.287Z,16.95
2018-09-06T06:29:53.366Z,17.08
2018-09-06T06:30:53.411Z,17.13
2018-09-06T06:31:53.452Z,17.14
2018-09-06T06:32:53.484Z,17.20
2018-09-06T06:33:53.538Z,17.26
2018-09-06T06:34:53.586Z,17.33
2018-09-06T06:35:53.658Z,17.29
2018-09-06T06:36:53.696Z,17.44
2018-09-06T06:37:53.735Z,17.40
2018-09-06T06:38:53.783Z,17.55
2018-09-06T06:39:53.886Z,17.54
2018-09-06T06:40:53.911Z,17.63
2018-09-06T06:41:53.933Z,17.71
2018-09-06T06:42:54.017Z,17.71
2018-09-06T06:43:54.036Z,17.85
2018-09-06T06:44:54.087Z,17.99
2018-09-06T06:45:54.156Z,18.22
2018-09-06T06:46:54.224Z,18.94
2018-09-06T06:47:54.236Z,19.66
2018-09-06T06:48:54.284Z,20.38
2018-09-06T06:49:54.346Z,20.89
2018-09-06T06:50:54.392Z,21.36
2018-09-06T06:51:54.469Z,22.02
2018-09-06T06:52:54.483Z,22.62
2018-09-06T06:53:54.535Z,22.62
2018-09-06T06:54:54.598Z,22.99
2018-09-06T06:55:54.636Z,23.23
2018-09-06T06:56:54.711Z,23.70
2018-09-06T06:57:54.749Z,23.15
2018-09-06T06:58:54.796Z,22.84
2018-09-06T06:59:54.846Z,23.07
2018-09-06T07:00:54.898Z,22.90
2018-09-06T07:01:54.972Z,23.08
2018-09-06T07:02:54.993Z,23.34
2018-09-06T07:03:55.070Z,23.29
2018-09-06T07:04:55.097Z,23.12
2018-09-06T07:05:55.148Z,23.20
2018-09-06T07:06:55.215Z,23.12
2018-09-06T07:07:55.273Z,23.17
2018-09-06T07:08:55.317Z,23.67
2018-09-06T07:09:55.355Z,23.90
2018-09-06T07:10:55.401Z,24.23
2018-09-06T07:11:55.455Z,24.80
2018-09-06T07:12:55.538Z,25.05
2018-09-06T07:13:55.559Z,25.24
2018-09-06T07:14:55.616Z,24.90
2018-09-06T07:15:55.665Z,25.13
2018-09-06T07:16:55.713Z,25.15
2018-09-06T07:17:55.804Z,25.39
2018-09-06T07:18:55.820Z,25.00
2018-09-06T07:19:55.871Z,25.38
2018-09-06T07:20:56.046Z,24.98
2018-09-06T07:21:55.980Z,25.49
2018-09-06T07:22:56.050Z,25.97
2018-09-06T07:23:56.087Z,25.89
2018-09-06T07:24:56.165Z,26.09
2018-09-06T07:25:56.187Z,26.25
2018-09-06T07:26:56.251Z,26.52
2018-09-06T07:27:57.159Z,26.47
2018-09-06T07:28:56.343Z,26.65
2018-09-06T07:29:56.414Z,26.98
2018-09-06T07:30:56.449Z,26.79
2018-09-06T07:31:56.500Z,27.17
2018-09-06T07:32:56.585Z,27.16
2018-09-06T07:33:56.605Z,26.91
2018-09-06T07:34:56.795Z,26.64
2018-09-06T07:35:57.188Z,26.87
2018-09-06T07:36:56.764Z,27.09
2018-09-06T07:37:56.818Z,27.01
2018-09-06T07:38:56.872Z,26.44
2018-09-06T07:39:56.954Z,26.22
2018-09-06T07:40:56.980Z,26.44
2018-09-06T07:41:57.039Z,26.64
2018-09-06T07:42:57.091Z,26.87
2018-09-06T07:43:57.150Z,26.67
2018-09-06T07:44:57.221Z,26.96
2018-09-06T07:45:57.271Z,26.59
2018-09-06T07:46:57.357Z,26.50
2018-09-06T07:47:57.358Z,26.64
2018-09-06T07:48:57.410Z,26.69
2018-09-06T07:49:57.487Z,25.67
2018-09-06T07:50:57.537Z,25.59
2018-09-06T07:51:57.573Z,25.71
2018-09-06T07:52:57.624Z,25.91
2018-09-06T07:53:57.678Z,25.35
2018-09-06T07:54:57.732Z,25.19
2018-09-06T07:55:57.810Z,25.50
2018-09-06T07:56:57.846Z,25.54
2018-09-06T07:57:57.896Z,25.56
2018-09-06T07:58:57.953Z,25.43
2018-09-06T07:59:58.012Z,25.91
2018-09-06T08:00:58.186Z,26.25
2018-09-06T08:01:58.134Z,25.72
2018-09-06T08:02:58.164Z,25.94
2018-09-06T08:03:58.227Z,25.22
2018-09-06T08:04:58.290Z,25.06
2018-09-06T08:05:58.341Z,25.69
2018-09-06T08:06:58.400Z,25.87
2018-09-06T08:07:58.537Z,25.71
2018-09-06T08:08:58.489Z,25.39
2018-09-06T08:09:58.553Z,25.42
2018-09-06T08:10:58.596Z,25.30
2018-09-06T08:11:58.720Z,24.76
2018-09-06T08:12:58.717Z,25.16
2018-09-06T08:13:58.763Z,25.53
2018-09-06T08:14:58.825Z,25.44
2018-09-06T08:15:58.873Z,25.42
2018-09-06T08:16:58.957Z,25.20
2018-09-06T08:17:59.684Z,24.91
2018-09-06T08:18:59.094Z,24.82
2018-09-06T08:19:59.085Z,25.15
2018-09-06T08:20:59.137Z,24.42
2018-09-06T08:21:59.218Z,23.94
2018-09-06T08:22:59.243Z,23.46
2018-09-06T08:23:59.296Z,23.94
2018-09-06T08:24:59.361Z,24.44
2018-09-06T08:26:00.182Z,24.82
2018-09-06T08:26:59.609Z,24.85
2018-09-06T08:27:59.535Z,24.85
2018-09-06T08:28:59.572Z,25.22
2018-09-06T08:30:00.487Z,25.28
2018-09-06T08:30:59.881Z,25.35
2018-09-06T08:31:59.759Z,25.44
2018-09-06T08:32:59.783Z,25.69
2018-09-06T08:33:59.970Z,25.71
2018-09-06T08:35:00.720Z,25.93
2018-09-06T08:36:01.686Z,25.49
2018-09-06T08:37:00.179Z,25.62
2018-09-06T08:38:00.070Z,25.75
2018-09-06T08:39:00.106Z,25.39
2018-09-06T08:40:00.167Z,25.05
2018-09-06T08:41:00.218Z,25.38
2018-09-06T08:42:00.296Z,25.17
2018-09-06T08:43:00.340Z,25.15
2018-09-06T08:44:00.381Z,24.97
2018-09-06T08:45:00.449Z,24.52
2018-09-06T08:46:00.488Z,24.45
2018-09-06T08:47:00.578Z,25.06
2018-09-06T08:48:00.616Z,25.53
2018-09-06T08:49:00.683Z,25.86
2018-09-06T08:50:00.713Z,25.69
2018-09-06T08:51:01.693Z,25.69
2018-09-06T08:52:00.892Z,25.83
2018-09-06T08:53:00.870Z,25.97
2018-09-06T08:54:00.948Z,25.56
2018-09-06T08:55:00.995Z,24.98
2018-09-06T08:56:01.034Z,24.75
2018-09-06T08:57:01.089Z,24.07
2018-09-06T08:58:01.146Z,24.12
2018-09-06T08:59:01.235Z,24.19
2018-09-06T09:00:02.197Z,24.42
2018-09-06T09:01:01.322Z,24.61
2018-09-06T09:02:01.380Z,24.94
2018-09-06T09:03:01.419Z,25.54
2018-09-06T09:04:01.503Z,25.39
2018-09-06T09:05:01.528Z,25.74
2018-09-06T09:06:01.594Z,25.94
2018-09-06T09:07:01.641Z,26.08
2018-09-06T09:08:01.693Z,25.64
2018-09-06T09:09:01.773Z,25.10
2018-09-06T09:10:01.833Z,24.32
2018-09-06T09:11:01.863Z,23.77
2018-09-06T09:12:01.914Z,23.76
2018-09-06T09:13:02.795Z,24.14
2018-09-06T09:14:02.032Z,24.05
2018-09-06T09:15:02.103Z,24.14
2018-09-06T09:16:02.200Z,24.20
2018-09-06T09:17:02.191Z,24.49
2018-09-06T09:18:02.258Z,24.34
2018-09-06T09:19:02.335Z,24.05
2018-09-06T09:20:02.348Z,24.01
2018-09-06T09:21:02.406Z,24.56
2018-09-06T09:22:02.526Z,24.97
2018-09-06T09:23:02.523Z,24.64
2018-09-06T09:24:02.603Z,25.06
2018-09-06T09:25:02.623Z,25.02
2018-09-06T09:26:02.678Z,24.35
2018-09-06T09:27:03.208Z,24.08
2018-09-06T09:28:02.801Z,23.77
2018-09-06T09:29:02.879Z,23.85
2018-09-06T09:30:02.900Z,23.60
2018-09-06T09:31:02.956Z,23.94
2018-09-06T09:32:03.716Z,24.10
2018-09-06T09:33:03.083Z,23.90
2018-09-06T09:34:03.153Z,23.50
2018-09-06T09:35:03.181Z,23.85
2018-09-06T09:36:03.297Z,24.45
2018-09-06T09:37:03.285Z,24.16
2018-09-06T09:38:03.352Z,23.94
2018-09-06T09:39:03.417Z,24.02
2018-09-06T09:40:03.449Z,24.34
2018-09-06T09:41:03.507Z,24.61
2018-09-06T09:42:03.584Z,24.98
2018-09-06T09:43:03.610Z,24.63
2018-09-06T09:44:03.671Z,24.49
2018-09-06T09:45:03.721Z,24.41
2018-09-06T09:47:39.275Z,25.47
2018-09-06T09:48:39.296Z,25.84
2018-09-06T09:49:40.163Z,25.37
2018-09-06T09:51:00.457Z,25.67
2018-09-06T09:51:39.469Z,25.91
2018-09-06T09:52:39.523Z,25.71
2018-09-06T09:53:39.577Z,25.87
2018-09-06T09:54:39.658Z,25.47
2018-09-06T09:55:39.780Z,25.50
2018-09-06T09:56:39.753Z,25.84
2018-09-06T09:57:39.834Z,26.20
2018-09-06T09:58:39.884Z,25.86
2018-09-06T09:59:39.905Z,25.13
2018-09-06T10:00:39.959Z,24.63
2018-09-06T10:01:40.020Z,24.83
2018-09-06T10:02:40.075Z,24.31
2018-09-06T10:03:40.153Z,24.35
2018-09-06T10:04:41.055Z,24.45
2018-09-06T10:05:40.277Z,24.79
2018-09-06T10:06:40.304Z,24.63
2018-09-06T10:07:40.351Z,24.92
2018-09-06T10:08:40.417Z,24.80
2018-09-06T10:09:40.472Z,23.95
2018-09-06T10:10:41.251Z,23.47
2018-09-06T10:11:40.573Z,22.97
2018-09-06T10:12:40.625Z,22.65
2018-09-06T10:13:41.286Z,22.50
2018-09-06T10:14:40.790Z,22.56
2018-09-06T10:15:40.838Z,22.50
2018-09-06T10:16:40.857Z,22.75
2018-09-06T10:17:40.902Z,22.77
2018-09-06T10:18:40.965Z,23.01
2018-09-06T10:19:41.011Z,23.14
2018-09-06T10:20:41.105Z,23.42
2018-09-06T10:21:41.144Z,23.68
2018-09-06T10:22:41.173Z,23.75
2018-09-06T10:23:41.234Z,23.79
2018-09-06T10:24:41.289Z,23.80
2018-09-06T10:25:41.376Z,23.64
2018-09-06T10:26:41.393Z,23.85
2018-09-06T10:27:41.442Z,23.83
2018-09-06T10:28:41.534Z,23.68
2018-09-06T10:29:42.259Z,23.60
2018-09-06T10:30:41.650Z,23.57
2018-09-06T10:31:41.662Z,23.71
2018-09-06T10:32:41.724Z,23.58
2018-09-06T10:33:41.767Z,23.40
2018-09-06T10:34:41.822Z,23.49
2018-09-06T10:35:41.912Z,23.94
2018-09-06T10:36:41.961Z,24.16
2018-09-06T10:37:41.988Z,24.52
2018-09-06T10:38:42.038Z,24.67
2018-09-06T10:39:42.108Z,24.77
2018-09-06T10:40:42.186Z,24.53
2018-09-06T10:41:42.222Z,24.54
2018-09-06T10:42:42.271Z,24.44
2018-09-06T10:43:42.313Z,24.50
2018-09-06T10:44:42.385Z,24.52
2018-09-06T10:45:42.431Z,24.37
2018-09-06T10:46:42.498Z,24.49
2018-09-06T10:47:42.581Z,24.35
2018-09-06T10:48:42.588Z,24.53
2018-09-06T10:49:42.651Z,24.41
2018-09-06T10:50:42.699Z,24.35
2018-09-06T10:51:42.771Z,23.90
2018-09-06T10:52:42.809Z,23.79
2018-09-06T10:53:42.887Z,24.04
2018-09-06T10:54:43.002Z,24.20
2018-09-06T10:55:42.972Z,24.29
2018-09-06T10:56:43.043Z,24.14
2018-09-06T10:57:43.102Z,24.50
2018-09-06T10:58:43.144Z,24.82
2018-09-06T10:59:43.207Z,25.20
2018-09-06T11:00:43.303Z,25.50
2018-09-06T11:01:43.343Z,25.37
2018-09-06T11:02:43.385Z,25.71
2018-09-06T11:03:43.414Z,25.84
2018-09-06T11:04:43.465Z,25.84
2018-09-06T11:05:44.283Z,25.28
2018-09-06T11:06:43.582Z,24.77
2018-09-06T11:07:43.669Z,24.59
2018-09-06T11:08:43.713Z,24.32
2018-09-06T11:09:43.753Z,24.24
2018-09-06T11:10:43.796Z,24.22
2018-09-06T11:11:43.863Z,24.39
2018-09-06T11:12:43.945Z,24.60
2018-09-06T11:13:44.022Z,24.83
2018-09-06T11:14:44.026Z,24.71
2018-09-06T11:15:44.090Z,24.34
2018-09-06T11:16:44.128Z,24.34
2018-09-06T11:17:44.214Z,24.53
2018-09-06T11:18:44.261Z,24.52
2018-09-06T11:19:44.312Z,24.56
2018-09-06T11:20:44.360Z,25.07
2018-09-06T11:21:44.474Z,25.39
2018-09-06T11:22:44.658Z,25.54
2018-09-06T11:23:44.553Z,25.35
2018-09-06T11:24:44.582Z,25.39
2018-09-06T11:25:44.654Z,25.30
2018-09-06T11:26:44.692Z,25.15
2018-09-06T11:27:44.765Z,25.24
2018-09-06T11:28:44.834Z,24.91
2018-09-06T11:29:44.856Z,24.97
2018-09-06T11:30:44.911Z,24.82
2018-09-06T11:31:44.997Z,24.69
2018-09-06T11:32:45.020Z,24.47
2018-09-06T11:33:45.109Z,24.61
2018-09-06T11:34:45.145Z,25.07
2018-09-06T11:35:45.190Z,25.38
2018-09-06T11:36:45.246Z,25.84
2018-09-06T11:37:45.305Z,26.12
2018-09-06T11:38:45.376Z,25.61
2018-09-06T11:39:45.484Z,25.44
2018-09-06T11:40:45.482Z,25.46
2018-09-06T11:41:45.525Z,25.35
2018-09-06T11:42:45.584Z,25.46
2018-09-06T11:43:45.639Z,24.82
2018-09-06T11:44:45.715Z,24.85
2018-09-06T11:45:45.770Z,24.83
2018-09-06T11:46:45.875Z,25.15
2018-09-06T11:47:45.901Z,25.06
2018-09-06T11:48:45.938Z,25.20
2018-09-06T11:49:45.981Z,25.32
2018-09-06T11:50:46.077Z,25.65
2018-09-06T11:51:46.830Z,25.84
2018-09-06T11:52:46.153Z,25.93
2018-09-06T11:53:46.205Z,26.08
2018-09-06T11:54:46.265Z,26.06
2018-09-06T11:55:46.346Z,26.39
2018-09-06T11:56:46.799Z,26.09
2018-09-06T11:57:47.300Z,25.83
2018-09-06T11:58:46.500Z,25.62
2018-09-06T11:59:47.324Z,25.91
2018-09-06T12:00:47.303Z,25.87
2018-09-06T12:01:46.674Z,25.93
2018-09-06T12:02:46.735Z,26.39
2018-09-06T12:03:46.775Z,26.87
2018-09-06T12:04:46.839Z,27.01
2018-09-06T12:05:46.917Z,26.28
2018-09-06T12:06:46.976Z,25.74
2018-09-06T12:07:47.005Z,25.75
2018-09-06T12:08:47.069Z,26.28
2018-09-06T12:09:47.126Z,26.91
2018-09-06T12:10:47.183Z,27.21
2018-09-06T12:11:47.253Z,27.21
2018-09-06T12:12:47.299Z,27.39
2018-09-06T12:13:47.381Z,27.53
2018-09-06T12:14:47.419Z,27.80
2018-09-06T12:15:47.476Z,28.21
2018-09-06T12:16:47.552Z,28.40
2018-09-06T12:17:47.611Z,27.96
2018-09-06T12:18:47.658Z,28.19
2018-09-06T12:19:48.345Z,28.36
2018-09-06T12:20:47.757Z,28.66
2018-09-06T12:21:47.837Z,28.80
2018-09-06T12:22:47.904Z,28.96
2018-09-06T12:23:47.946Z,29.20
2018-09-06T12:24:48.011Z,29.37
2018-09-06T12:25:48.168Z,28.95
2018-09-06T12:26:48.825Z,28.58
2018-09-06T12:27:48.824Z,27.89
2018-09-06T12:28:48.253Z,28.04
2018-09-06T12:29:48.301Z,27.94
2018-09-06T12:30:48.353Z,27.96
2018-09-06T12:31:48.413Z,28.11
2018-09-06T12:32:48.497Z,27.88
2018-09-06T12:33:48.531Z,27.19
2018-09-06T12:34:48.617Z,26.92
2018-09-06T12:35:48.664Z,26.55
2018-09-06T12:36:48.713Z,26.29
2018-09-06T12:37:48.799Z,26.15
2018-09-06T12:38:48.927Z,26.32
2018-09-06T12:39:49.823Z,26.40
2018-09-06T12:40:48.956Z,26.67
2018-09-06T12:41:49.093Z,26.72
2018-09-06T12:42:49.078Z,26.32
2018-09-06T12:43:49.826Z,26.24
2018-09-06T12:44:49.212Z,25.82
2018-09-06T12:45:49.254Z,25.64
2018-09-06T12:46:49.323Z,25.86
2018-09-06T12:47:49.366Z,26.50
2018-09-06T12:48:49.444Z,26.92
2018-09-06T12:49:49.492Z,27.23
2018-09-06T12:50:49.545Z,26.86
2018-09-06T12:51:49.619Z,26.91
2018-09-06T12:52:49.680Z,26.96
2018-09-06T12:53:49.759Z,26.91
2018-09-06T12:54:49.779Z,26.79